Terminal Aerodrome Forecast
Issued by NWS

Home | Current Version | Previous Version | Graphics & Text | Print | Product List | Glossary On
Versions: 1 2 3 4 5 6 7 8 9 10 11 12 13
000
FTUS43 KOAX 191700
TAFCDR
TAF
KCDR 191723Z 1918/2018 17009KT P6SM SCT300
     FM200400 17011KT P6SM VCTS SCT050CB BKN250
     FM201000 23006KT P6SM BKN100=

USA.gov is the U.S. government's official web portal to all federal, state and local government web resources and services.